createdAt,value
2019-03-22T00:00:21.417Z,24.23
2019-03-22T00:00:56.361Z,22.10
2019-03-22T00:01:27.572Z,22.47
2019-03-22T00:01:58.742Z,22.90
2019-03-22T00:02:29.913Z,21.73
2019-03-22T00:03:01.128Z,22.17
2019-03-22T00:03:33.299Z,21.07
2019-03-22T00:04:04.559Z,21.70
2019-03-22T00:04:35.723Z,22.10
2019-03-22T00:05:07.143Z,24.47
2019-03-22T00:05:38.405Z,22.00
2019-03-22T00:06:09.614Z,21.60
2019-03-22T00:06:40.765Z,22.07
2019-03-22T00:07:11.952Z,21.80
2019-03-22T00:07:43.104Z,22.27
2019-03-22T00:08:14.300Z,21.97
2019-03-22T00:08:45.446Z,22.87
2019-03-22T00:09:16.756Z,24.73
2019-03-22T00:09:48.014Z,24.13
2019-03-22T00:10:19.222Z,24.07
2019-03-22T00:10:50.376Z,24.13
2019-03-22T00:11:21.582Z,23.33
2019-03-22T00:11:52.802Z,23.60
2019-03-22T00:12:24.048Z,23.33
2019-03-22T00:12:55.259Z,24.73
2019-03-22T00:13:26.510Z,24.40
2019-03-22T00:13:57.664Z,23.63
2019-03-22T00:14:28.884Z,24.33
2019-03-22T00:15:00.032Z,24.00
2019-03-22T00:15:31.236Z,24.20
2019-03-22T00:16:02.365Z,23.47
2019-03-22T00:16:33.572Z,24.37
2019-03-22T00:17:04.757Z,24.20
2019-03-22T00:17:36.974Z,22.67
2019-03-22T00:18:08.227Z,22.77
2019-03-22T00:18:39.481Z,21.97
2019-03-22T00:19:10.728Z,21.47
2019-03-22T00:19:41.954Z,22.37
2019-03-22T00:20:14.169Z,23.40
2019-03-22T00:20:45.441Z,21.57
2019-03-22T00:21:16.658Z,23.03
2019-03-22T00:21:47.959Z,23.03
2019-03-22T00:22:19.191Z,23.37
2019-03-22T00:22:50.344Z,23.97
2019-03-22T00:23:21.551Z,23.77
2019-03-22T00:23:52.719Z,23.27
2019-03-22T00:24:23.926Z,22.67
2019-03-22T00:24:55.093Z,23.77
2019-03-22T00:25:26.286Z,24.20
2019-03-22T00:25:57.611Z,25.50
2019-03-22T00:26:28.904Z,23.33
2019-03-22T00:27:00.045Z,22.63
2019-03-22T00:27:31.337Z,23.20
2019-03-22T00:28:02.489Z,21.87
2019-03-22T00:28:33.682Z,22.30
2019-03-22T00:29:04.896Z,22.67
2019-03-22T00:29:36.091Z,22.17
2019-03-22T00:30:08.577Z,20.73
2019-03-22T00:30:39.749Z,20.17
2019-03-22T00:31:10.923Z,21.37
2019-03-22T00:31:42.092Z,21.13
2019-03-22T00:32:14.271Z,20.87
2019-03-22T00:32:46.478Z,22.70
2019-03-22T00:33:17.678Z,22.20
2019-03-22T00:33:48.895Z,21.80
2019-03-22T00:34:20.120Z,22.37
2019-03-22T00:34:51.360Z,20.80
2019-03-22T00:35:22.584Z,22.40
2019-03-22T00:35:53.874Z,22.77
2019-03-22T00:36:25.214Z,22.90
2019-03-22T00:36:56.443Z,22.37
2019-03-22T00:37:27.651Z,21.03
2019-03-22T00:37:58.916Z,23.17
2019-03-22T00:38:30.172Z,23.27
2019-03-22T00:39:01.317Z,22.07
2019-03-22T00:39:34.317Z,22.17
2019-03-22T00:40:07.082Z,21.90
2019-03-22T00:40:38.281Z,20.63
2019-03-22T00:41:09.454Z,20.70
2019-03-22T00:41:40.651Z,21.50
2019-03-22T00:42:11.817Z,20.33
2019-03-22T00:42:43.018Z,20.17
2019-03-22T00:43:14.170Z,18.87
2019-03-22T00:43:45.378Z,19.70
2019-03-22T00:44:16.533Z,19.50
2019-03-22T00:44:47.743Z,18.33
2019-03-22T00:45:18.920Z,19.43
2019-03-22T00:45:50.130Z,19.37
2019-03-22T00:46:21.279Z,19.00
2019-03-22T00:46:52.467Z,19.50
2019-03-22T00:47:23.627Z,19.40
2019-03-22T00:47:55.842Z,18.07
2019-03-22T00:48:26.987Z,18.53
2019-03-22T00:48:58.199Z,19.37
2019-03-22T00:49:29.351Z,19.57
2019-03-22T00:50:00.782Z,18.10
2019-03-22T00:50:32.014Z,18.80
2019-03-22T00:51:03.227Z,19.13
2019-03-22T00:51:35.384Z,19.70
2019-03-22T00:52:06.583Z,18.27
2019-03-22T00:52:37.787Z,18.80
2019-03-22T00:53:08.992Z,18.20
2019-03-22T00:53:40.131Z,18.03
2019-03-22T00:54:12.344Z,17.73
2019-03-22T00:54:43.580Z,17.97
2019-03-22T00:55:14.793Z,17.73
2019-03-22T00:55:45.927Z,16.33
2019-03-22T00:56:17.124Z,16.93
2019-03-22T00:56:48.292Z,16.10
2019-03-22T00:57:28.090Z,15.93
2019-03-22T00:57:52.566Z,16.03
2019-03-22T00:58:23.818Z,15.43
2019-03-22T00:58:55.226Z,15.20
2019-03-22T00:59:26.473Z,15.67
2019-03-22T00:59:57.999Z,15.77
2019-03-22T01:00:29.320Z,15.50
2019-03-22T01:01:00.558Z,15.90
2019-03-22T01:01:31.777Z,15.80
2019-03-22T01:02:03.005Z,16.67
2019-03-22T01:02:34.177Z,16.03
2019-03-22T01:03:05.359Z,16.30
2019-03-22T01:03:36.581Z,16.50
2019-03-22T01:04:07.817Z,17.67
2019-03-22T01:04:39.075Z,16.57
2019-03-22T01:05:10.297Z,16.43
2019-03-22T01:05:41.521Z,15.73
2019-03-22T01:06:13.749Z,16.57
2019-03-22T01:06:44.997Z,14.53
2019-03-22T01:07:16.227Z,16.60
2019-03-22T01:07:47.446Z,16.13
2019-03-22T01:08:18.653Z,16.37
2019-03-22T01:08:49.903Z,15.00
2019-03-22T01:09:21.131Z,16.67
2019-03-22T01:09:52.341Z,15.50
2019-03-22T01:10:23.559Z,15.83
2019-03-22T01:10:55.068Z,16.87
2019-03-22T01:11:26.315Z,16.63
2019-03-22T01:11:57.571Z,16.17
2019-03-22T01:12:28.823Z,16.40
2019-03-22T01:13:00.045Z,17.13
2019-03-22T01:13:31.216Z,17.00
2019-03-22T01:14:02.455Z,16.27
2019-03-22T01:14:33.601Z,16.43
2019-03-22T01:15:08.318Z,16.83
2019-03-22T01:15:39.460Z,16.70
2019-03-22T01:16:10.673Z,17.20
2019-03-22T01:16:41.820Z,17.70
2019-03-22T01:17:13.024Z,18.87
2019-03-22T01:17:44.154Z,17.47
2019-03-22T01:18:15.351Z,17.30
2019-03-22T01:18:46.498Z,17.20
2019-03-22T01:19:17.697Z,16.43
2019-03-22T01:19:48.860Z,15.90
2019-03-22T01:20:20.089Z,16.23
2019-03-22T01:20:51.228Z,18.17
2019-03-22T01:21:22.455Z,19.50
2019-03-22T01:21:53.628Z,17.40
2019-03-22T01:22:25.172Z,17.53
2019-03-22T01:22:56.329Z,17.80
2019-03-22T01:23:27.554Z,16.73
2019-03-22T01:23:59.950Z,17.30
2019-03-22T01:24:31.399Z,16.67
2019-03-22T01:25:04.950Z,16.37
2019-03-22T01:25:36.165Z,18.07
2019-03-22T01:26:07.310Z,18.83
2019-03-22T01:26:38.522Z,21.07
2019-03-22T01:27:09.673Z,19.77
2019-03-22T01:27:41.509Z,19.67
2019-03-22T01:28:12.964Z,18.47
2019-03-22T01:28:44.185Z,18.50
2019-03-22T01:29:15.420Z,19.93
2019-03-22T01:29:46.646Z,18.53
2019-03-22T01:30:18.855Z,17.87
2019-03-22T01:30:50.094Z,18.43
2019-03-22T01:31:21.317Z,18.40
2019-03-22T01:31:52.655Z,18.33
2019-03-22T01:32:23.893Z,17.73
2019-03-22T01:32:55.143Z,16.57
2019-03-22T01:33:26.347Z,16.53
2019-03-22T01:33:57.501Z,17.60
2019-03-22T01:34:28.709Z,16.20
2019-03-22T01:34:59.855Z,17.83
2019-03-22T01:35:31.072Z,18.90
2019-03-22T01:36:02.344Z,17.93
2019-03-22T01:36:33.562Z,18.07
2019-03-22T01:37:04.731Z,17.33
2019-03-22T01:37:35.940Z,17.93
2019-03-22T01:38:07.094Z,17.47
2019-03-22T01:38:38.311Z,17.23
2019-03-22T01:39:09.484Z,17.40
2019-03-22T01:39:40.722Z,18.20
2019-03-22T01:40:13.580Z,18.70
2019-03-22T01:40:44.782Z,18.63
2019-03-22T01:41:16.944Z,18.93
2019-03-22T01:41:48.129Z,20.13
2019-03-22T01:42:19.305Z,19.27
2019-03-22T01:42:50.485Z,20.50
2019-03-22T01:43:21.661Z,19.47
2019-03-22T01:43:52.910Z,20.37
2019-03-22T01:44:24.059Z,20.90
2019-03-22T01:44:55.301Z,18.57
2019-03-22T01:45:26.452Z,20.03
2019-03-22T01:45:57.660Z,18.80
2019-03-22T01:46:28.808Z,19.03
2019-03-22T01:46:59.996Z,19.40
2019-03-22T01:47:31.146Z,19.27
2019-03-22T01:48:02.358Z,19.43
2019-03-22T01:48:33.523Z,18.67
2019-03-22T01:49:04.711Z,20.37
2019-03-22T01:49:35.888Z,19.40
2019-03-22T01:50:14.223Z,19.37
2019-03-22T01:50:45.396Z,21.73
2019-03-22T01:51:16.579Z,19.63
2019-03-22T01:51:47.755Z,19.43
2019-03-22T01:52:19.929Z,19.37
2019-03-22T01:52:51.131Z,20.00
2019-03-22T01:53:22.289Z,21.70
2019-03-22T01:53:53.474Z,20.07
2019-03-22T01:54:24.671Z,21.10
2019-03-22T01:54:55.839Z,21.53
2019-03-22T01:55:27.025Z,21.13
2019-03-22T01:55:58.211Z,21.37
2019-03-22T01:56:29.387Z,20.23
2019-03-22T01:57:00.562Z,21.50
2019-03-22T01:57:31.731Z,21.27
2019-03-22T01:58:02.903Z,20.60
2019-03-22T01:58:34.111Z,21.47
2019-03-22T01:59:05.292Z,20.33
2019-03-22T01:59:37.515Z,19.60
2019-03-22T02:00:13.538Z,19.90
2019-03-22T02:00:44.720Z,21.10
2019-03-22T02:01:15.898Z,20.53
2019-03-22T02:01:47.078Z,21.00
2019-03-22T02:02:18.272Z,19.93
2019-03-22T02:02:49.485Z,20.57
2019-03-22T02:03:20.731Z,20.87
2019-03-22T02:03:51.906Z,21.60
2019-03-22T02:04:23.143Z,21.33
2019-03-22T02:04:54.293Z,20.30
2019-03-22T02:05:25.488Z,19.87
2019-03-22T02:05:56.636Z,20.73
2019-03-22T02:06:27.920Z,20.60
2019-03-22T02:06:59.110Z,20.70
2019-03-22T02:07:30.257Z,21.37
2019-03-22T02:08:01.400Z,20.47
2019-03-22T02:08:32.627Z,19.83
2019-03-22T02:09:05.504Z,21.93
2019-03-22T02:09:36.664Z,21.27
2019-03-22T02:10:09.958Z,22.60
2019-03-22T02:10:41.124Z,21.10
2019-03-22T02:11:12.328Z,20.63
2019-03-22T02:11:43.492Z,21.70
2019-03-22T02:12:14.684Z,22.03
2019-03-22T02:12:45.839Z,22.07
2019-03-22T02:13:17.055Z,20.77
2019-03-22T02:13:48.249Z,21.37
2019-03-22T02:14:19.445Z,22.33
2019-03-22T02:14:50.609Z,21.03
2019-03-22T02:15:21.792Z,21.50
2019-03-22T02:15:52.944Z,21.00
2019-03-22T02:16:24.437Z,20.90
2019-03-22T02:16:55.577Z,19.53
2019-03-22T02:17:26.771Z,20.87
2019-03-22T02:17:57.899Z,20.27
2019-03-22T02:18:29.103Z,20.77
2019-03-22T02:19:00.307Z,20.43
2019-03-22T02:19:31.511Z,19.83
2019-03-22T02:20:05.375Z,20.53
2019-03-22T02:20:36.581Z,19.23
2019-03-22T02:21:07.753Z,22.30
2019-03-22T02:21:39.580Z,22.03
2019-03-22T02:22:10.761Z,21.67
2019-03-22T02:22:41.932Z,20.77
2019-03-22T02:23:13.111Z,22.13
2019-03-22T02:23:44.325Z,22.27
2019-03-22T02:24:15.515Z,22.23
2019-03-22T02:24:46.711Z,20.83
2019-03-22T02:25:17.893Z,22.03
2019-03-22T02:25:49.063Z,20.87
2019-03-22T02:26:20.226Z,20.03
2019-03-22T02:26:52.403Z,19.93
2019-03-22T02:27:23.587Z,20.00
2019-03-22T02:28:03.699Z,19.93
2019-03-22T02:28:27.960Z,20.67
2019-03-22T02:28:59.246Z,20.83
2019-03-22T02:29:30.444Z,19.80
2019-03-22T02:30:02.186Z,19.27
2019-03-22T02:30:33.504Z,19.43
2019-03-22T02:31:04.650Z,19.03
2019-03-22T02:31:35.854Z,18.77
2019-03-22T02:32:07.019Z,19.33
2019-03-22T02:32:38.231Z,19.40
2019-03-22T02:33:09.387Z,19.17
2019-03-22T02:33:40.572Z,19.83
2019-03-22T02:34:11.754Z,19.90
2019-03-22T02:34:42.910Z,18.20
2019-03-22T02:35:27.326Z,19.03
2019-03-22T02:35:47.162Z,20.50
2019-03-22T02:36:18.350Z,20.17
2019-03-22T02:36:49.682Z,19.70
2019-03-22T02:37:20.938Z,19.80
2019-03-22T02:37:53.076Z,20.87
2019-03-22T02:38:24.242Z,20.00
2019-03-22T02:38:55.437Z,19.50
2019-03-22T02:39:26.714Z,19.00
2019-03-22T02:39:57.956Z,20.13
2019-03-22T02:40:29.151Z,20.03
2019-03-22T02:41:00.422Z,18.63
2019-03-22T02:41:31.657Z,18.80
2019-03-22T02:42:02.802Z,18.47
2019-03-22T02:42:34.006Z,18.20
2019-03-22T02:43:05.161Z,18.27
2019-03-22T02:43:36.472Z,18.93
2019-03-22T02:44:07.640Z,18.57
2019-03-22T02:44:38.928Z,18.10
2019-03-22T02:45:11.987Z,18.57
2019-03-22T02:45:43.236Z,17.40
2019-03-22T02:46:14.437Z,18.27
2019-03-22T02:46:45.646Z,18.70
2019-03-22T02:47:16.894Z,19.03
2019-03-22T02:47:48.090Z,21.33
2019-03-22T02:48:19.247Z,19.87
2019-03-22T02:48:50.468Z,19.70
2019-03-22T02:49:21.654Z,20.07
2019-03-22T02:49:52.847Z,20.37
2019-03-22T02:50:24.018Z,19.17
2019-03-22T02:50:56.296Z,20.50
2019-03-22T02:51:27.909Z,19.43
2019-03-22T02:51:59.103Z,19.60
2019-03-22T02:52:30.264Z,19.53
2019-03-22T02:53:01.440Z,19.87
2019-03-22T02:53:32.592Z,18.67
2019-03-22T02:54:03.795Z,18.13
2019-03-22T02:54:34.965Z,17.50
2019-03-22T02:55:07.264Z,17.73
2019-03-22T02:55:38.534Z,16.93
2019-03-22T02:56:09.841Z,17.43
2019-03-22T02:56:41.190Z,17.33
2019-03-22T02:57:12.362Z,16.13
2019-03-22T02:57:43.543Z,17.30
2019-03-22T02:58:20.840Z,17.47
2019-03-22T02:58:47.816Z,16.00
2019-03-22T02:59:18.977Z,16.20
2019-03-22T02:59:51.163Z,16.33
2019-03-22T03:00:22.437Z,16.80
2019-03-22T03:00:53.668Z,16.50
2019-03-22T03:01:25.112Z,16.80
2019-03-22T03:01:56.286Z,16.57
2019-03-22T03:02:27.582Z,17.07
2019-03-22T03:02:58.818Z,18.20
2019-03-22T03:03:30.054Z,18.13
2019-03-22T03:04:01.243Z,19.40
2019-03-22T03:04:32.432Z,17.53
2019-03-22T03:05:06.512Z,18.73
2019-03-22T03:05:37.669Z,18.50
2019-03-22T03:06:08.889Z,18.23
2019-03-22T03:06:40.251Z,17.47
2019-03-22T03:07:11.497Z,17.50
2019-03-22T03:07:42.661Z,17.60
2019-03-22T03:08:13.859Z,18.07
2019-03-22T03:08:44.997Z,17.17
2019-03-22T03:09:16.284Z,16.70
2019-03-22T03:09:47.462Z,17.47
2019-03-22T03:10:18.630Z,16.30
2019-03-22T03:10:49.843Z,17.57
2019-03-22T03:11:21.010Z,17.17
2019-03-22T03:11:52.201Z,16.50
2019-03-22T03:12:23.374Z,16.60
2019-03-22T03:12:54.605Z,17.00
2019-03-22T03:13:25.865Z,14.53
2019-03-22T03:13:57.036Z,16.27
2019-03-22T03:14:28.199Z,16.40
2019-03-22T03:14:59.373Z,16.43
2019-03-22T03:15:30.563Z,15.60
2019-03-22T03:16:01.744Z,15.90
2019-03-22T03:16:33.337Z,16.30
2019-03-22T03:17:04.604Z,15.87
2019-03-22T03:17:35.787Z,14.97
2019-03-22T03:18:06.964Z,15.67
2019-03-22T03:18:38.232Z,15.90
2019-03-22T03:19:09.418Z,16.03
2019-03-22T03:19:40.598Z,15.60
2019-03-22T03:20:16.338Z,14.03
2019-03-22T03:20:47.544Z,14.30
2019-03-22T03:21:18.802Z,14.87
2019-03-22T03:21:50.000Z,13.83
2019-03-22T03:22:21.180Z,14.43
2019-03-22T03:22:52.357Z,15.03
2019-03-22T03:23:23.539Z,14.37
2019-03-22T03:23:54.721Z,13.30
2019-03-22T03:24:26.910Z,14.00
2019-03-22T03:24:58.113Z,14.27
2019-03-22T03:25:29.269Z,14.47
2019-03-22T03:26:00.469Z,13.60
2019-03-22T03:26:31.666Z,13.37
2019-03-22T03:27:02.869Z,12.90
2019-03-22T03:27:34.019Z,14.03
2019-03-22T03:28:05.342Z,13.63
2019-03-22T03:28:37.606Z,14.93
2019-03-22T03:29:09.001Z,14.27
2019-03-22T03:29:40.230Z,13.33
2019-03-22T03:30:16.636Z,13.73
2019-03-22T03:30:47.798Z,13.63
2019-03-22T03:31:19.073Z,13.50
2019-03-22T03:31:50.350Z,14.60
2019-03-22T03:32:21.568Z,14.83
2019-03-22T03:32:52.778Z,13.97
2019-03-22T03:33:24.389Z,13.63
2019-03-22T03:33:55.551Z,12.57
2019-03-22T03:34:26.738Z,12.07
2019-03-22T03:34:58.074Z,12.93
2019-03-22T03:35:29.370Z,13.30
2019-03-22T03:36:00.629Z,13.27
2019-03-22T03:36:34.806Z,12.47
2019-03-22T03:37:04.980Z,12.90
2019-03-22T03:37:36.189Z,13.77
2019-03-22T03:38:07.348Z,13.77
2019-03-22T03:38:38.553Z,11.83
2019-03-22T03:39:09.713Z,12.33
2019-03-22T03:39:40.912Z,12.53
2019-03-22T03:40:12.595Z,12.97
2019-03-22T03:40:43.774Z,13.27
2019-03-22T03:41:14.963Z,12.97
2019-03-22T03:41:46.193Z,11.73
2019-03-22T03:42:17.409Z,12.53
2019-03-22T03:42:48.600Z,12.90
2019-03-22T03:43:19.746Z,14.20
2019-03-22T03:43:50.924Z,13.17
2019-03-22T03:44:22.112Z,14.53
2019-03-22T03:44:53.336Z,14.33
2019-03-22T03:45:35.518Z,13.33
2019-03-22T03:46:06.796Z,13.83
2019-03-22T03:46:37.998Z,14.73
2019-03-22T03:47:10.709Z,14.17
2019-03-22T03:47:41.975Z,13.47
2019-03-22T03:48:13.147Z,13.67
2019-03-22T03:48:44.342Z,13.47
2019-03-22T03:49:15.525Z,14.47
2019-03-22T03:49:46.717Z,13.30
2019-03-22T03:50:17.950Z,12.97
2019-03-22T03:50:49.117Z,12.43
2019-03-22T03:51:20.358Z,13.50
2019-03-22T03:51:51.580Z,13.83
2019-03-22T03:52:22.775Z,13.80
2019-03-22T03:52:53.930Z,14.07
2019-03-22T03:53:26.130Z,13.53
2019-03-22T03:53:57.304Z,13.07
2019-03-22T03:54:28.593Z,12.90
2019-03-22T03:54:59.741Z,15.00
2019-03-22T03:55:30.944Z,13.60
2019-03-22T03:56:02.197Z,13.50
2019-03-22T03:56:33.493Z,14.33
2019-03-22T03:57:04.654Z,13.57
2019-03-22T03:57:35.874Z,15.30
2019-03-22T03:58:07.145Z,14.80
2019-03-22T03:58:51.786Z,14.97
2019-03-22T03:59:11.413Z,14.50
2019-03-22T03:59:42.616Z,15.27
2019-03-22T04:00:13.780Z,15.37
2019-03-22T04:00:44.981Z,14.33
2019-03-22T04:01:16.138Z,14.53
2019-03-22T04:01:47.358Z,14.43
2019-03-22T04:02:18.597Z,13.63
2019-03-22T04:02:49.792Z,14.30
2019-03-22T04:03:20.963Z,12.40
2019-03-22T04:03:52.196Z,13.97
2019-03-22T04:04:24.354Z,12.70
2019-03-22T04:04:55.525Z,13.40
2019-03-22T04:05:27.754Z,12.37
2019-03-22T04:05:59.193Z,12.40
2019-03-22T04:06:30.451Z,12.77
2019-03-22T04:07:01.714Z,12.83
2019-03-22T04:07:32.961Z,12.73
2019-03-22T04:08:05.171Z,12.00
2019-03-22T04:08:36.347Z,12.30
2019-03-22T04:09:07.562Z,13.50
2019-03-22T04:09:38.714Z,13.50
2019-03-22T04:10:09.915Z,12.80
2019-03-22T04:10:41.106Z,12.77
2019-03-22T04:11:12.341Z,13.07
2019-03-22T04:11:43.588Z,12.47
2019-03-22T04:12:14.820Z,13.60
2019-03-22T04:12:46.041Z,14.63
2019-03-22T04:13:17.273Z,16.07
2019-03-22T04:13:48.492Z,17.90
2019-03-22T04:14:19.739Z,16.90
2019-03-22T04:14:50.973Z,18.10
2019-03-22T04:15:22.190Z,18.43
2019-03-22T04:15:53.403Z,19.23
2019-03-22T04:16:24.563Z,19.23
2019-03-22T04:16:56.767Z,18.67
2019-03-22T04:17:27.936Z,15.67
2019-03-22T04:17:59.203Z,15.73
2019-03-22T04:18:30.417Z,13.63
2019-03-22T04:19:01.800Z,13.43
2019-03-22T04:19:32.941Z,11.50
2019-03-22T04:20:06.125Z,12.83
2019-03-22T04:20:37.337Z,13.23
2019-03-22T04:21:08.578Z,12.33
2019-03-22T04:21:39.714Z,12.43
2019-03-22T04:22:10.934Z,13.17
2019-03-22T04:22:42.095Z,12.87
2019-03-22T04:23:13.296Z,13.13
2019-03-22T04:23:44.450Z,14.03
2019-03-22T04:24:15.666Z,13.90
2019-03-22T04:24:46.824Z,14.17
2019-03-22T04:25:18.094Z,16.83
2019-03-22T04:25:49.353Z,18.20
2019-03-22T04:26:20.590Z,16.43
2019-03-22T04:26:51.827Z,14.13
2019-03-22T04:27:23.071Z,16.60
2019-03-22T04:27:54.512Z,14.97
2019-03-22T04:28:25.753Z,15.07
2019-03-22T04:29:07.411Z,15.20
2019-03-22T04:29:30.136Z,16.87
2019-03-22T04:30:01.601Z,16.47
2019-03-22T04:30:33.926Z,15.53
2019-03-22T04:31:05.174Z,16.67
2019-03-22T04:31:36.380Z,14.40
2019-03-22T04:32:07.589Z,12.07
2019-03-22T04:32:38.769Z,12.37
2019-03-22T04:33:09.985Z,12.23
2019-03-22T04:33:41.153Z,13.47
2019-03-22T04:34:12.354Z,15.07
2019-03-22T04:34:44.515Z,17.43
2019-03-22T04:35:15.855Z,17.93
2019-03-22T04:35:47.005Z,16.03
2019-03-22T04:36:18.188Z,14.80
2019-03-22T04:36:49.360Z,13.30
2019-03-22T04:37:20.573Z,12.03
2019-03-22T04:37:51.720Z,11.63
2019-03-22T04:38:22.918Z,13.07
2019-03-22T04:38:54.076Z,12.17
2019-03-22T04:39:25.346Z,11.67
2019-03-22T04:39:56.550Z,12.67
2019-03-22T04:40:28.575Z,11.53
2019-03-22T04:40:59.760Z,12.57
2019-03-22T04:41:31.971Z,12.07
2019-03-22T04:42:03.234Z,13.80
2019-03-22T04:42:34.448Z,13.93
2019-03-22T04:43:05.602Z,12.97
2019-03-22T04:43:36.804Z,13.10
2019-03-22T04:44:07.964Z,12.43
2019-03-22T04:44:39.142Z,10.97
2019-03-22T04:45:10.288Z,11.07
2019-03-22T04:45:41.556Z,10.07
2019-03-22T04:46:12.744Z,10.33
2019-03-22T04:46:43.921Z,9.93
2019-03-22T04:47:15.100Z,9.80
2019-03-22T04:47:46.293Z,9.17
2019-03-22T04:48:29.482Z,10.13
2019-03-22T04:49:00.675Z,9.50
2019-03-22T04:49:32.374Z,9.20
2019-03-22T04:50:04.660Z,9.30
2019-03-22T04:50:38.034Z,8.97
2019-03-22T04:51:09.215Z,8.87
2019-03-22T04:51:41.484Z,9.40
2019-03-22T04:52:12.684Z,9.33
2019-03-22T04:52:43.889Z,9.23
2019-03-22T04:53:17.464Z,9.90
2019-03-22T04:53:49.670Z,10.27
2019-03-22T04:54:21.845Z,9.63
2019-03-22T04:54:53.039Z,10.13
2019-03-22T04:55:24.477Z,10.03
2019-03-22T04:55:58.751Z,10.20
2019-03-22T04:56:31.026Z,9.70
2019-03-22T04:57:02.435Z,10.37
2019-03-22T04:57:33.631Z,9.80
2019-03-22T04:58:04.811Z,9.83
2019-03-22T04:58:36.038Z,8.77
2019-03-22T04:59:18.501Z,9.10
2019-03-22T04:59:42.351Z,9.90
2019-03-22T05:00:13.498Z,9.10
2019-03-22T05:00:44.743Z,9.07
2019-03-22T05:01:17.500Z,8.83
2019-03-22T05:01:49.742Z,9.70
2019-03-22T05:02:20.882Z,8.40
2019-03-22T05:02:52.092Z,8.03
2019-03-22T05:03:23.558Z,7.67
2019-03-22T05:03:55.243Z,7.40
2019-03-22T05:04:26.392Z,7.93
2019-03-22T05:04:57.699Z,7.63
2019-03-22T05:05:28.866Z,7.80
2019-03-22T05:06:00.397Z,7.80
2019-03-22T05:06:31.592Z,7.77
2019-03-22T05:07:02.764Z,8.33
2019-03-22T05:07:34.008Z,8.07
2019-03-22T05:08:05.847Z,7.57
2019-03-22T05:08:37.577Z,7.97
2019-03-22T05:09:08.794Z,7.53
2019-03-22T05:09:40.042Z,7.43
2019-03-22T05:10:12.052Z,7.83
2019-03-22T05:10:43.501Z,7.23
2019-03-22T05:11:14.724Z,7.60
2019-03-22T05:11:45.932Z,7.47
2019-03-22T05:12:17.507Z,7.57
2019-03-22T05:12:48.714Z,7.77
2019-03-22T05:13:19.871Z,7.60
2019-03-22T05:13:51.181Z,7.90
2019-03-22T05:14:22.341Z,7.70
2019-03-22T05:14:54.941Z,7.47
2019-03-22T05:15:26.107Z,6.93
2019-03-22T05:15:57.399Z,8.13
2019-03-22T05:16:28.661Z,7.77
2019-03-22T05:17:00.085Z,7.97
2019-03-22T05:17:31.342Z,7.67
2019-03-22T05:18:02.575Z,7.20
2019-03-22T05:18:33.721Z,7.20
2019-03-22T05:19:05.529Z,7.40
2019-03-22T05:19:36.781Z,9.10
2019-03-22T05:20:08.005Z,8.80
2019-03-22T05:20:39.153Z,9.97
2019-03-22T05:21:10.372Z,10.77
2019-03-22T05:21:41.553Z,9.50
2019-03-22T05:22:12.784Z,10.17
2019-03-22T05:22:43.926Z,9.10
2019-03-22T05:23:15.127Z,9.43
2019-03-22T05:23:46.384Z,9.70
2019-03-22T05:24:18.451Z,8.57
2019-03-22T05:24:49.661Z,8.33
2019-03-22T05:25:20.872Z,7.90
2019-03-22T05:25:52.034Z,8.13
2019-03-22T05:26:23.449Z,7.90
2019-03-22T05:26:54.660Z,7.53
2019-03-22T05:27:25.897Z,6.60
2019-03-22T05:27:57.312Z,7.57
2019-03-22T05:28:28.533Z,6.63
2019-03-22T05:28:59.748Z,7.40
2019-03-22T05:29:31.189Z,7.53
2019-03-22T05:30:04.734Z,7.17
2019-03-22T05:31:11.314Z,7.80
2019-03-22T05:32:05.236Z,7.87
2019-03-22T05:32:36.450Z,7.23
2019-03-22T05:33:07.625Z,7.93
2019-03-22T05:33:39.045Z,7.37
2019-03-22T05:34:10.210Z,7.90
2019-03-22T05:34:41.426Z,8.90
2019-03-22T05:35:12.583Z,8.03
2019-03-22T05:35:43.770Z,8.20
2019-03-22T05:36:15.040Z,9.10
2019-03-22T05:36:46.192Z,8.70
2019-03-22T05:37:17.378Z,9.00
2019-03-22T05:37:48.580Z,8.70
2019-03-22T05:38:19.724Z,8.97
2019-03-22T05:38:50.940Z,10.77
2019-03-22T05:39:22.111Z,8.70
2019-03-22T05:39:53.303Z,9.03
2019-03-22T05:40:24.455Z,8.97
2019-03-22T05:40:55.659Z,8.17
2019-03-22T05:41:26.822Z,8.80
2019-03-22T05:41:58.026Z,9.17
2019-03-22T05:42:29.211Z,9.90
2019-03-22T05:43:00.405Z,9.03
2019-03-22T05:43:31.569Z,9.03
2019-03-22T05:44:02.778Z,9.63
2019-03-22T05:44:34.007Z,9.70
2019-03-22T05:45:05.570Z,9.03
2019-03-22T05:45:36.799Z,8.37
2019-03-22T05:46:08.014Z,7.97
2019-03-22T05:46:39.175Z,7.93
2019-03-22T05:47:10.405Z,7.93
2019-03-22T05:47:42.585Z,7.97
2019-03-22T05:48:13.762Z,8.30
2019-03-22T05:48:44.951Z,8.97
2019-03-22T05:49:17.145Z,9.43
2019-03-22T05:49:48.336Z,11.20
2019-03-22T05:50:19.515Z,11.10
2019-03-22T05:50:50.698Z,12.13
2019-03-22T05:51:21.886Z,10.80
2019-03-22T05:51:54.511Z,9.60
2019-03-22T05:52:25.705Z,9.17
2019-03-22T05:52:56.888Z,9.40
2019-03-22T05:53:28.054Z,8.97
2019-03-22T05:53:59.218Z,8.90
2019-03-22T05:54:30.398Z,7.70
2019-03-22T05:55:01.580Z,7.93
2019-03-22T05:55:32.768Z,8.63
2019-03-22T05:56:03.954Z,8.10
2019-03-22T05:56:35.150Z,7.67
2019-03-22T05:57:13.219Z,8.77
2019-03-22T05:57:39.411Z,8.70
2019-03-22T05:58:10.592Z,8.10
2019-03-22T05:58:41.851Z,8.73
2019-03-22T05:59:13.037Z,7.37
2019-03-22T05:59:44.228Z,7.87
2019-03-22T06:00:16.667Z,7.77
2019-03-22T06:00:47.894Z,8.10
2019-03-22T06:01:19.084Z,8.00
2019-03-22T06:01:50.278Z,7.50
2019-03-22T06:02:21.471Z,7.93
2019-03-22T06:02:52.679Z,8.43
2019-03-22T06:03:23.830Z,8.07
2019-03-22T06:03:55.101Z,8.20
2019-03-22T06:04:26.248Z,7.53
2019-03-22T06:04:57.441Z,6.77
2019-03-22T06:05:28.601Z,6.77
2019-03-22T06:05:59.815Z,7.13
2019-03-22T06:06:30.971Z,7.60
2019-03-22T06:07:02.179Z,9.10
2019-03-22T06:07:33.348Z,9.67
2019-03-22T06:08:04.574Z,9.60
2019-03-22T06:08:35.721Z,8.67
2019-03-22T06:09:08.215Z,6.53
2019-03-22T06:09:39.383Z,6.93
2019-03-22T06:10:10.595Z,7.07
2019-03-22T06:10:41.751Z,7.13
2019-03-22T06:11:13.951Z,7.47
2019-03-22T06:11:45.749Z,7.90
2019-03-22T06:12:17.011Z,6.63
2019-03-22T06:12:48.163Z,6.13
2019-03-22T06:13:20.088Z,6.00
2019-03-22T06:13:51.242Z,6.93
2019-03-22T06:14:22.476Z,6.13
2019-03-22T06:14:53.691Z,6.53
2019-03-22T06:15:25.200Z,6.50
2019-03-22T06:15:56.366Z,6.70
2019-03-22T06:16:27.591Z,7.10
2019-03-22T06:16:58.737Z,7.03
2019-03-22T06:17:29.944Z,7.50
2019-03-22T06:18:01.130Z,6.80
2019-03-22T06:18:32.331Z,6.30
2019-03-22T06:19:03.488Z,5.57
2019-03-22T06:19:34.690Z,6.23
2019-03-22T06:20:06.065Z,5.93
2019-03-22T06:20:37.284Z,6.43
2019-03-22T06:21:08.451Z,6.73
2019-03-22T06:21:39.648Z,5.93
2019-03-22T06:22:10.808Z,7.00
2019-03-22T06:22:42.016Z,8.37
2019-03-22T06:23:13.192Z,8.67
2019-03-22T06:23:44.378Z,9.37
2019-03-22T06:24:15.557Z,12.80
2019-03-22T06:24:46.732Z,14.80
2019-03-22T06:25:17.916Z,12.33
2019-03-22T06:25:49.101Z,11.63
2019-03-22T06:26:20.306Z,11.60
2019-03-22T06:26:51.481Z,11.70
2019-03-22T06:27:22.665Z,9.40
2019-03-22T06:27:53.853Z,9.10
2019-03-22T06:28:26.309Z,8.27
2019-03-22T06:28:57.503Z,6.73
2019-03-22T06:29:28.691Z,6.67
2019-03-22T06:29:59.899Z,6.57
2019-03-22T06:30:31.135Z,6.50
2019-03-22T06:31:02.396Z,6.87
2019-03-22T06:31:33.660Z,7.60
2019-03-22T06:32:04.913Z,8.03
2019-03-22T06:32:36.147Z,7.80
2019-03-22T06:33:07.391Z,6.27
2019-03-22T06:33:38.605Z,7.80
2019-03-22T06:34:09.759Z,8.03
2019-03-22T06:34:41.013Z,8.73
2019-03-22T06:35:12.181Z,9.77
2019-03-22T06:35:43.379Z,9.03
2019-03-22T06:36:14.554Z,7.73
2019-03-22T06:36:45.734Z,7.33
2019-03-22T06:37:16.912Z,7.73
2019-03-22T06:37:48.096Z,6.80
2019-03-22T06:38:19.282Z,7.37
2019-03-22T06:38:50.524Z,7.00
2019-03-22T06:39:21.706Z,6.97
2019-03-22T06:39:52.931Z,7.70
2019-03-22T06:40:24.088Z,8.10
2019-03-22T06:40:55.504Z,9.47
2019-03-22T06:41:26.664Z,13.03
2019-03-22T06:41:57.853Z,9.13
2019-03-22T06:42:29.016Z,6.80
2019-03-22T06:43:00.331Z,6.80
2019-03-22T06:43:31.509Z,6.50
2019-03-22T06:44:02.682Z,6.10
2019-03-22T06:44:33.869Z,6.00
2019-03-22T06:45:05.132Z,7.57
2019-03-22T06:45:36.312Z,9.00
2019-03-22T06:46:07.484Z,9.87
2019-03-22T06:46:38.679Z,10.23
2019-03-22T06:47:11.097Z,11.73
2019-03-22T06:47:42.549Z,13.87
2019-03-22T06:48:13.725Z,15.30
2019-03-22T06:48:44.913Z,15.80
2019-03-22T06:49:16.086Z,16.77